Terminal Aerodrome Forecast
Issued by NWS

Home | Current Version | Previous Version | Text Only | Print | Product List | Glossary On
Versions: 1 2 3 4 5 6 7 8 9 10 11 12 13 14 15 16 17 18 19 20 21 22 23 24 25 26 27 28
048
FTUS45 KCYS 121504 AAB
TAFAIA
TAF AMD
KAIA 121504Z 1215/1312 05011KT 1/4SM FZFG VV003
     FM121700 08008KT 4SM BR BKN015
     FM122000 13009KT 6SM BR OVC020
     FM130200 15012KT P6SM OVC004=

USA.gov is the U.S. government's official web portal to all federal, state and local government web resources and services.